sensor_id;sensor_type;location;lat;lon;timestamp;pressure;altitude;pressure_sealevel;temperature;humidity
77047;BME280;65977;56.380;44.022;2023-04-03T00:01:03;100845.50;;;3.85;63.68
77047;BME280;65977;56.380;44.022;2023-04-03T00:03:31;100844.81;;;3.81;63.79
77047;BME280;65977;56.380;44.022;2023-04-03T00:05:58;100847.50;;;3.80;63.92
77047;BME280;65977;56.380;44.022;2023-04-03T00:08:26;100846.50;;;3.82;63.88
77047;BME280;65977;56.380;44.022;2023-04-03T00:10:53;100850.13;;;3.80;63.72
77047;BME280;65977;56.380;44.022;2023-04-03T00:13:20;100854.50;;;3.79;63.83
77047;BME280;65977;56.380;44.022;2023-04-03T00:15:46;100846.91;;;3.75;63.39
77047;BME280;65977;56.380;44.022;2023-04-03T00:18:13;100846.06;;;3.74;63.54
77047;BME280;65977;56.380;44.022;2023-04-03T00:20:41;100850.53;;;3.72;63.55
77047;BME280;65977;56.380;44.022;2023-04-03T00:23:08;100847.31;;;3.67;63.39
77047;BME280;65977;56.380;44.022;2023-04-03T00:25:35;100842.94;;;3.68;63.39
77047;BME280;65977;56.380;44.022;2023-04-03T00:28:03;100850.00;;;3.66;63.62
77047;BME280;65977;56.380;44.022;2023-04-03T00:30:31;100844.84;;;3.64;63.69
77047;BME280;65977;56.380;44.022;2023-04-03T00:32:58;100852.78;;;3.63;63.59
77047;BME280;65977;56.380;44.022;2023-04-03T00:35:26;100851.09;;;3.62;63.70
77047;BME280;65977;56.380;44.022;2023-04-03T00:37:55;100852.84;;;3.61;63.77
77047;BME280;65977;56.380;44.022;2023-04-03T00:40:24;100854.53;;;3.62;63.79
77047;BME280;65977;56.380;44.022;2023-04-03T00:42:55;100845.94;;;3.60;63.65
77047;BME280;65977;56.380;44.022;2023-04-03T00:45:40;100846.81;;;3.61;63.63
77047;BME280;65977;56.380;44.022;2023-04-03T00:48:10;100849.47;;;3.59;63.66
77047;BME280;65977;56.380;44.022;2023-04-03T00:50:41;100840.13;;;3.55;63.52
77047;BME280;65977;56.380;44.022;2023-04-03T00:53:13;100841.88;;;3.55;63.48
77047;BME280;65977;56.380;44.022;2023-04-03T00:55:42;100846.25;;;3.54;63.66
77047;BME280;65977;56.380;44.022;2023-04-03T00:58:10;100845.41;;;3.54;63.76
77047;BME280;65977;56.380;44.022;2023-04-03T01:00:41;100845.41;;;3.54;63.73
77047;BME280;65977;56.380;44.022;2023-04-03T01:03:09;100850.72;;;3.52;63.71
77047;BME280;65977;56.380;44.022;2023-04-03T01:05:37;100849.97;;;3.50;63.39
77047;BME280;65977;56.380;44.022;2023-04-03T01:08:04;100850.81;;;3.51;63.61
77047;BME280;65977;56.380;44.022;2023-04-03T01:10:32;100852.56;;;3.50;63.61
77047;BME280;65977;56.380;44.022;2023-04-03T01:12:59;100849.22;;;3.48;63.22
77047;BME280;65977;56.380;44.022;2023-04-03T01:15:27;100843.19;;;3.46;63.55
77047;BME280;65977;56.380;44.022;2023-04-03T01:18:01;100841.53;;;3.45;63.37
77047;BME280;65977;56.380;44.022;2023-04-03T01:25:42;100842.38;;;3.46;63.31
77047;BME280;65977;56.380;44.022;2023-04-03T01:28:16;100838.06;;;3.45;63.55
77047;BME280;65977;56.380;44.022;2023-04-03T01:33:42;100846.81;;;3.44;63.60
77047;BME280;65977;56.380;44.022;2023-04-03T01:36:16;100844.28;;;3.42;63.46
77047;BME280;65977;56.380;44.022;2023-04-03T01:38:44;100851.03;;;3.46;63.43
77047;BME280;65977;56.380;44.022;2023-04-03T01:41:11;100842.44;;;3.44;63.90
77047;BME280;65977;56.380;44.022;2023-04-03T01:43:38;100843.13;;;3.48;64.04
77047;BME280;65977;56.380;44.022;2023-04-03T01:46:05;100849.88;;;3.52;63.96
77047;BME280;65977;56.380;44.022;2023-04-03T01:48:32;100850.56;;;3.55;64.43
77047;BME280;65977;56.380;44.022;2023-04-03T01:50:59;100844.34;;;3.58;64.17
77047;BME280;65977;56.380;44.022;2023-04-03T01:53:26;100834.03;;;3.55;64.15
77047;BME280;65977;56.380;44.022;2023-04-03T01:55:53;100835.81;;;3.54;64.65
77047;BME280;65977;56.380;44.022;2023-04-03T01:58:20;100845.56;;;3.68;64.43
77047;BME280;65977;56.380;44.022;2023-04-03T02:00:47;100837.78;;;3.66;64.26
77047;BME280;65977;56.380;44.022;2023-04-03T02:03:15;100835.94;;;3.68;64.23
77047;BME280;65977;56.380;44.022;2023-04-03T02:05:42;100838.56;;;3.68;64.09
77047;BME280;65977;56.380;44.022;2023-04-03T02:08:09;100830.78;;;3.67;64.03
77047;BME280;65977;56.380;44.022;2023-04-03T02:10:36;100826.91;;;3.58;63.68
77047;BME280;65977;56.380;44.022;2023-04-03T02:13:04;100834.50;;;3.63;63.81
77047;BME280;65977;56.380;44.022;2023-04-03T02:15:31;100838.13;;;3.60;63.71
77047;BME280;65977;56.380;44.022;2023-04-03T02:17:58;100823.09;;;3.48;63.75
77047;BME280;65977;56.380;44.022;2023-04-03T02:20:25;100832.28;;;3.55;63.83
77047;BME280;65977;56.380;44.022;2023-04-03T02:22:52;100837.81;;;3.49;63.75
77047;BME280;65977;56.380;44.022;2023-04-03T02:25:19;100834.28;;;3.50;63.59
77047;BME280;65977;56.380;44.022;2023-04-03T02:27:47;100838.75;;;3.48;63.54
77047;BME280;65977;56.380;44.022;2023-04-03T02:30:14;100846.66;;;3.47;63.55
77047;BME280;65977;56.380;44.022;2023-04-03T02:32:42;100838.91;;;3.45;63.80
77047;BME280;65977;56.380;44.022;2023-04-03T02:35:11;100837.31;;;3.43;63.56
77047;BME280;65977;56.380;44.022;2023-04-03T02:37:38;100845.03;;;3.44;63.66
77047;BME280;65977;56.380;44.022;2023-04-03T02:40:06;100845.13;;;3.43;63.66
77047;BME280;65977;56.380;44.022;2023-04-03T02:42:33;100837.38;;;3.41;63.68
77047;BME280;65977;56.380;44.022;2023-04-03T02:45:00;100840.72;;;3.43;63.47
77047;BME280;65977;56.380;44.022;2023-04-03T02:47:28;100840.72;;;3.43;63.60
77047;BME280;65977;56.380;44.022;2023-04-03T02:49:56;100844.19;;;3.44;63.67
77047;BME280;65977;56.380;44.022;2023-04-03T02:52:23;100842.44;;;3.44;63.66
77047;BME280;65977;56.380;44.022;2023-04-03T02:54:50;100846.75;;;3.45;63.67
77047;BME280;65977;56.380;44.022;2023-04-03T02:57:17;100844.03;;;3.47;63.75
77047;BME280;65977;56.380;44.022;2023-04-03T02:59:44;100835.28;;;3.48;63.60
77047;BME280;65977;56.380;44.022;2023-04-03T03:02:11;100834.28;;;3.50;63.66
77047;BME280;65977;56.380;44.022;2023-04-03T03:04:38;100834.97;;;3.54;63.86
77047;BME280;65977;56.380;44.022;2023-04-03T03:07:05;100842.63;;;3.57;63.63
77047;BME280;65977;56.380;44.022;2023-04-03T03:09:32;100848.41;;;3.63;63.40
77047;BME280;65977;56.380;44.022;2023-04-03T03:11:59;100847.22;;;3.69;63.43
77047;BME280;65977;56.380;44.022;2023-04-03T03:14:26;100853.91;;;3.74;63.32
77047;BME280;65977;56.380;44.022;2023-04-03T03:16:53;100856.09;;;3.82;63.31
77047;BME280;65977;56.380;44.022;2023-04-03T03:19:21;100855.69;;;3.90;63.35
77047;BME280;65977;56.380;44.022;2023-04-03T03:21:47;100858.91;;;3.95;63.27
77047;BME280;65977;56.380;44.022;2023-04-03T03:24:14;100847.97;;;4.04;62.88
77047;BME280;65977;56.380;44.022;2023-04-03T03:26:42;100840.47;;;4.13;62.76
77047;BME280;65977;56.380;44.022;2023-04-03T03:29:09;100846.88;;;4.23;62.60
77047;BME280;65977;56.380;44.022;2023-04-03T03:31:37;100845.53;;;4.32;62.56
77047;BME280;65977;56.380;44.022;2023-04-03T03:34:04;100843.91;;;4.45;62.54
77047;BME280;65977;56.380;44.022;2023-04-03T03:36:31;100853.63;;;4.59;62.35
77047;BME280;65977;56.380;44.022;2023-04-03T03:38:58;100843.31;;;4.71;62.28
77047;BME280;65977;56.380;44.022;2023-04-03T03:41:26;100848.50;;;4.87;61.93
77047;BME280;65977;56.380;44.022;2023-04-03T03:43:53;100849.31;;;5.03;61.51
77047;BME280;65977;56.380;44.022;2023-04-03T03:46:20;100850.78;;;5.23;61.34
77047;BME280;65977;56.380;44.022;2023-04-03T03:48:47;100844.63;;;5.38;60.91
77047;BME280;65977;56.380;44.022;2023-04-03T03:51:15;100843.59;;;5.54;60.72
77047;BME280;65977;56.380;44.022;2023-04-03T03:53:42;100835.75;;;5.68;60.20
77047;BME280;65977;56.380;44.022;2023-04-03T03:56:10;100846.66;;;5.91;60.05
77047;BME280;65977;56.380;44.022;2023-04-03T03:58:37;100838.31;;;6.12;60.09
77047;BME280;65977;56.380;44.022;2023-04-03T04:01:05;100842.19;;;6.33;59.92
77047;BME280;65977;56.380;44.022;2023-04-03T04:03:33;100841.66;;;6.55;59.43
77047;BME280;65977;56.380;44.022;2023-04-03T04:06:00;100837.44;;;6.79;59.20
77047;BME280;65977;56.380;44.022;2023-04-03T04:08:28;100833.09;;;7.05;58.58
77047;BME280;65977;56.380;44.022;2023-04-03T04:10:55;100829.44;;;7.33;58.34
77047;BME280;65977;56.380;44.022;2023-04-03T04:13:22;100828.50;;;7.72;57.90
77047;BME280;65977;56.380;44.022;2023-04-03T04:15:49;100828.13;;;8.26;57.28
77047;BME280;65977;56.380;44.022;2023-04-03T04:18:16;100830.59;;;9.12;55.89
77047;BME280;65977;56.380;44.022;2023-04-03T04:20:45;100814.41;;;10.92;51.51
77047;BME280;65977;56.380;44.022;2023-04-03T04:23:13;100817.38;;;13.74;45.11
77047;BME280;65977;56.380;44.022;2023-04-03T04:25:40;100815.81;;;15.85;40.20
77047;BME280;65977;56.380;44.022;2023-04-03T04:28:07;100823.00;;;17.57;36.86
77047;BME280;65977;56.380;44.022;2023-04-03T04:30:34;100799.25;;;19.24;34.20
77047;BME280;65977;56.380;44.022;2023-04-03T04:33:01;100813.22;;;20.65;31.84
77047;BME280;65977;56.380;44.022;2023-04-03T04:35:28;100809.81;;;22.38;29.09
77047;BME280;65977;56.380;44.022;2023-04-03T04:37:56;100814.81;;;23.54;27.24
77047;BME280;65977;56.380;44.022;2023-04-03T04:40:23;100806.78;;;24.24;26.48
77047;BME280;65977;56.380;44.022;2023-04-03T04:42:50;100807.97;;;25.35;24.39
77047;BME280;65977;56.380;44.022;2023-04-03T04:45:17;100817.69;;;26.28;23.26
77047;BME280;65977;56.380;44.022;2023-04-03T04:47:44;100812.66;;;27.33;22.50
77047;BME280;65977;56.380;44.022;2023-04-03T04:50:12;100815.44;;;28.42;20.72
77047;BME280;65977;56.380;44.022;2023-04-03T04:52:39;100812.22;;;28.73;20.39
77047;BME280;65977;56.380;44.022;2023-04-03T04:55:06;100820.59;;;29.28;19.83
77047;BME280;65977;56.380;44.022;2023-04-03T04:57:33;100833.44;;;29.83;18.69
77047;BME280;65977;56.380;44.022;2023-04-03T05:00:02;100829.31;;;30.19;18.35
77047;BME280;65977;56.380;44.022;2023-04-03T05:02:29;100833.19;;;30.23;18.05
77047;BME280;65977;56.380;44.022;2023-04-03T05:04:57;100829.94;;;30.04;18.09
77047;BME280;65977;56.380;44.022;2023-04-03T05:07:24;100829.59;;;30.00;18.29
77047;BME280;65977;56.380;44.022;2023-04-03T05:09:51;100828.72;;;29.95;18.04
77047;BME280;65977;56.380;44.022;2023-04-03T05:12:18;100832.03;;;29.80;18.18
77047;BME280;65977;56.380;44.022;2023-04-03T05:14:45;100830.66;;;29.78;18.16
77047;BME280;65977;56.380;44.022;2023-04-03T05:17:12;100823.91;;;30.24;17.90
77047;BME280;65977;56.380;44.022;2023-04-03T05:19:39;100822.97;;;30.56;17.34
77047;BME280;65977;56.380;44.022;2023-04-03T05:22:06;100828.25;;;31.16;16.88
77047;BME280;65977;56.380;44.022;2023-04-03T05:24:33;100820.53;;;31.77;16.32
77047;BME280;65977;56.380;44.022;2023-04-03T05:27:00;100823.97;;;32.56;16.12
77047;BME280;65977;56.380;44.022;2023-04-03T05:29:27;100815.88;;;33.17;14.97
77047;BME280;65977;56.380;44.022;2023-04-03T05:31:54;100820.72;;;33.95;14.31
77047;BME280;65977;56.380;44.022;2023-04-03T05:34:22;100835.41;;;34.88;14.11
77047;BME280;65977;56.380;44.022;2023-04-03T05:36:49;100817.38;;;35.16;13.56
77047;BME280;65977;56.380;44.022;2023-04-03T05:39:16;100826.06;;;34.89;14.02
77047;BME280;65977;56.380;44.022;2023-04-03T05:41:43;100829.31;;;34.97;13.64
77047;BME280;65977;56.380;44.022;2023-04-03T05:44:10;100822.44;;;35.33;13.10
77047;BME280;65977;56.380;44.022;2023-04-03T05:46:37;100826.78;;;35.96;13.28
77047;BME280;65977;56.380;44.022;2023-04-03T05:49:04;100826.22;;;36.65;12.88
77047;BME280;65977;56.380;44.022;2023-04-03T05:51:34;100820.03;;;37.43;12.20
77047;BME280;65977;56.380;44.022;2023-04-03T05:54:11;100827.31;;;38.12;11.39
77047;BME280;65977;56.380;44.022;2023-04-03T05:56:40;100830.44;;;38.74;11.31
77047;BME280;65977;56.380;44.022;2023-04-03T05:59:07;100826.81;;;39.09;11.18
77047;BME280;65977;56.380;44.022;2023-04-03T06:01:34;100826.25;;;39.43;10.99
77047;BME280;65977;56.380;44.022;2023-04-03T06:04:01;100823.16;;;39.44;10.91
77047;BME280;65977;56.380;44.022;2023-04-03T06:06:48;100820.41;;;39.00;10.62
77047;BME280;65977;56.380;44.022;2023-04-03T06:09:16;100819.75;;;38.31;11.26
77047;BME280;65977;56.380;44.022;2023-04-03T06:11:44;100820.44;;;37.82;11.53
77047;BME280;65977;56.380;44.022;2023-04-03T06:14:11;100823.75;;;37.52;11.97
77047;BME280;65977;56.380;44.022;2023-04-03T06:16:39;100825.69;;;37.52;11.56
77047;BME280;65977;56.380;44.022;2023-04-03T06:19:07;100821.44;;;37.73;11.52
77047;BME280;65977;56.380;44.022;2023-04-03T06:21:35;100816.94;;;37.77;11.94
77047;BME280;65977;56.380;44.022;2023-04-03T06:24:03;100822.59;;;37.99;11.86
77047;BME280;65977;56.380;44.022;2023-04-03T06:26:30;100828.72;;;38.37;11.13
77047;BME280;65977;56.380;44.022;2023-04-03T06:28:57;100827.66;;;38.60;11.23
77047;BME280;65977;56.380;44.022;2023-04-03T06:31:24;100830.94;;;38.76;11.08
77047;BME280;65977;56.380;44.022;2023-04-03T06:33:52;100815.91;;;38.90;11.19
77047;BME280;65977;56.380;44.022;2023-04-03T06:36:19;100818.63;;;39.04;10.96
77047;BME280;65977;56.380;44.022;2023-04-03T06:38:48;100818.34;;;39.28;10.92
77047;BME280;65977;56.380;44.022;2023-04-03T06:41:15;100818.94;;;39.47;11.13
77047;BME280;65977;56.380;44.022;2023-04-03T06:43:43;100816.53;;;39.54;10.87
77047;BME280;65977;56.380;44.022;2023-04-03T06:46:15;100806.28;;;39.54;10.36
77047;BME280;65977;56.380;44.022;2023-04-03T06:48:44;100811.97;;;39.71;10.26
77047;BME280;65977;56.380;44.022;2023-04-03T06:51:20;100809.94;;;40.03;10.16
77047;BME280;65977;56.380;44.022;2023-04-03T06:53:48;100814.44;;;40.38;9.89
77047;BME280;65977;56.380;44.022;2023-04-03T06:56:15;100815.50;;;40.68;9.76
77047;BME280;65977;56.380;44.022;2023-04-03T06:58:43;100816.31;;;40.94;9.64
77047;BME280;65977;56.380;44.022;2023-04-03T07:01:13;100808.13;;;41.23;9.82
77047;BME280;65977;56.380;44.022;2023-04-03T07:03:40;100814.25;;;41.63;9.72
77047;BME280;65977;56.380;44.022;2023-04-03T07:06:11;100821.16;;;41.95;9.27
77047;BME280;65977;56.380;44.022;2023-04-03T07:08:39;100814.91;;;42.36;9.36
77047;BME280;65977;56.380;44.022;2023-04-03T07:11:06;100821.09;;;42.62;9.21
77047;BME280;65977;56.380;44.022;2023-04-03T07:13:33;100827.75;;;42.90;8.61
77047;BME280;65977;56.380;44.022;2023-04-03T07:16:02;100812.13;;;43.18;8.30
77047;BME280;65977;56.380;44.022;2023-04-03T07:18:34;100824.38;;;43.38;8.82
77047;BME280;65977;56.380;44.022;2023-04-03T07:21:02;100820.03;;;43.28;8.33
77047;BME280;65977;56.380;44.022;2023-04-03T07:23:29;100819.75;;;42.68;9.00
77047;BME280;65977;56.380;44.022;2023-04-03T07:25:56;100810.56;;;41.88;9.40
77047;BME280;65977;56.380;44.022;2023-04-03T07:28:24;100811.06;;;40.84;9.48
77047;BME280;65977;56.380;44.022;2023-04-03T07:30:59;100804.13;;;40.13;9.79
77047;BME280;65977;56.380;44.022;2023-04-03T07:33:26;100806.91;;;40.13;10.23
77047;BME280;65977;56.380;44.022;2023-04-03T07:35:54;100807.81;;;40.48;9.99
77047;BME280;65977;56.380;44.022;2023-04-03T07:38:21;100798.88;;;40.93;10.06
77047;BME280;65977;56.380;44.022;2023-04-03T07:40:50;100797.75;;;41.67;9.11
77047;BME280;65977;56.380;44.022;2023-04-03T07:43:18;100805.81;;;42.27;9.26
77047;BME280;65977;56.380;44.022;2023-04-03T07:45:46;100803.66;;;43.15;8.69
77047;BME280;65977;56.380;44.022;2023-04-03T07:48:24;100807.44;;;44.12;8.27
77047;BME280;65977;56.380;44.022;2023-04-03T07:50:51;100812.88;;;44.85;7.94
77047;BME280;65977;56.380;44.022;2023-04-03T07:53:19;100816.69;;;45.63;7.65
77047;BME280;65977;56.380;44.022;2023-04-03T07:55:47;100811.03;;;46.42;7.17
77047;BME280;65977;56.380;44.022;2023-04-03T07:58:16;100806.34;;;47.03;6.56
77047;BME280;65977;56.380;44.022;2023-04-03T08:00:44;100812.63;;;47.38;6.90
77047;BME280;65977;56.380;44.022;2023-04-03T08:03:12;100807.22;;;47.26;6.43
77047;BME280;65977;56.380;44.022;2023-04-03T08:05:41;100807.81;;;46.97;6.72
77047;BME280;65977;56.380;44.022;2023-04-03T08:08:10;100797.63;;;46.70;6.79
77047;BME280;65977;56.380;44.022;2023-04-03T08:10:38;100800.81;;;46.33;6.66
77047;BME280;65977;56.380;44.022;2023-04-03T08:13:06;100797.47;;;45.93;7.03
77047;BME280;65977;56.380;44.022;2023-04-03T08:15:33;100794.13;;;45.72;7.41
77047;BME280;65977;56.380;44.022;2023-04-03T08:18:01;100799.25;;;45.54;7.34
77047;BME280;65977;56.380;44.022;2023-04-03T08:20:29;100795.50;;;45.19;7.55
77047;BME280;65977;56.380;44.022;2023-04-03T08:22:56;100796.94;;;45.13;6.77
77047;BME280;65977;56.380;44.022;2023-04-03T08:25:23;100792.97;;;44.58;6.95
77047;BME280;65977;56.380;44.022;2023-04-03T08:27:50;100792.81;;;43.91;7.75
77047;BME280;65977;56.380;44.022;2023-04-03T08:30:18;100791.25;;;43.12;7.83
77047;BME280;65977;56.380;44.022;2023-04-03T08:32:45;100781.59;;;42.27;8.11
77047;BME280;65977;56.380;44.022;2023-04-03T08:35:12;100785.69;;;42.00;7.96
77047;BME280;65977;56.380;44.022;2023-04-03T08:37:39;100785.44;;;42.14;7.77
77047;BME280;65977;56.380;44.022;2023-04-03T08:40:10;100780.41;;;42.07;7.83
77047;BME280;65977;56.380;44.022;2023-04-03T08:50:41;100779.28;;;41.07;8.32
77047;BME280;65977;56.380;44.022;2023-04-03T08:53:15;100781.75;;;40.01;8.83
77047;BME280;65977;56.380;44.022;2023-04-03T08:55:47;100791.44;;;38.97;9.17
77047;BME280;65977;56.380;44.022;2023-04-03T08:58:19;100786.94;;;38.03;9.45
77047;BME280;65977;56.380;44.022;2023-04-03T09:00:51;100786.75;;;37.40;10.06
77047;BME280;65977;56.380;44.022;2023-04-03T09:03:20;100786.22;;;37.38;9.85
77047;BME280;65977;56.380;44.022;2023-04-03T09:05:53;100785.41;;;37.37;10.50
77047;BME280;65977;56.380;44.022;2023-04-03T09:08:33;100770.63;;;37.47;9.80
77047;BME280;65977;56.380;44.022;2023-04-03T09:13:52;100779.97;;;37.32;10.25
77047;BME280;65977;56.380;44.022;2023-04-03T09:16:36;100780.31;;;37.12;10.17
77047;BME280;65977;56.380;44.022;2023-04-03T09:19:18;100778.22;;;36.71;10.27
77047;BME280;65977;56.380;44.022;2023-04-03T09:21:48;100783.47;;;36.07;10.57
77047;BME280;65977;56.380;44.022;2023-04-03T09:24:17;100778.72;;;35.36;10.55
77047;BME280;65977;56.380;44.022;2023-04-03T09:26:54;100788.16;;;34.86;11.20
77047;BME280;65977;56.380;44.022;2023-04-03T09:29:26;100776.00;;;34.59;11.26
77047;BME280;65977;56.380;44.022;2023-04-03T09:31:58;100788.66;;;34.50;11.86
77047;BME280;65977;56.380;44.022;2023-04-03T09:34:36;100792.56;;;34.39;12.09
77047;BME280;65977;56.380;44.022;2023-04-03T09:37:04;100780.56;;;34.24;12.11
77047;BME280;65977;56.380;44.022;2023-04-03T09:39:52;100781.50;;;33.85;12.20
77047;BME280;65977;56.380;44.022;2023-04-03T09:42:24;100787.38;;;33.38;12.52
77047;BME280;65977;56.380;44.022;2023-04-03T09:44:57;100785.66;;;32.71;12.42
77047;BME280;65977;56.380;44.022;2023-04-03T09:47:35;100788.09;;;31.91;13.21
77047;BME280;65977;56.380;44.022;2023-04-03T09:52:40;100780.84;;;30.26;14.56
77047;BME280;65977;56.380;44.022;2023-04-03T09:55:28;100791.78;;;29.49;15.15
77047;BME280;65977;56.380;44.022;2023-04-03T09:58:04;100785.91;;;28.91;15.73
77047;BME280;65977;56.380;44.022;2023-04-03T10:00:38;100782.09;;;28.35;16.30
77047;BME280;65977;56.380;44.022;2023-04-03T10:03:28;100781.47;;;27.82;16.95
77047;BME280;65977;56.380;44.022;2023-04-03T10:05:58;100784.81;;;27.49;17.02
77047;BME280;65977;56.380;44.022;2023-04-03T10:11:15;100792.91;;;27.03;17.25
77047;BME280;65977;56.380;44.022;2023-04-03T10:13:55;100785.56;;;26.91;17.39
77047;BME280;65977;56.380;44.022;2023-04-03T10:16:35;100778.72;;;26.89;17.63
77047;BME280;65977;56.380;44.022;2023-04-03T10:21:53;100781.69;;;27.11;17.24
77047;BME280;65977;56.380;44.022;2023-04-03T10:24:47;100781.97;;;27.32;17.75
77047;BME280;65977;56.380;44.022;2023-04-03T10:27:33;100769.59;;;27.71;17.10
77047;BME280;65977;56.380;44.022;2023-04-03T10:30:58;100774.88;;;28.01;17.16
77047;BME280;65977;56.380;44.022;2023-04-03T10:35:47;100774.09;;;28.85;16.20
77047;BME280;65977;56.380;44.022;2023-04-03T10:47:21;100763.50;;;35.15;11.64
77047;BME280;65977;56.380;44.022;2023-04-03T10:55:38;100757.47;;;37.57;10.27
77047;BME280;65977;56.380;44.022;2023-04-03T10:58:39;100761.84;;;38.13;9.63
77047;BME280;65977;56.380;44.022;2023-04-03T11:01:11;100756.31;;;38.26;9.50
77047;BME280;65977;56.380;44.022;2023-04-03T11:03:59;100750.59;;;38.09;9.85
77047;BME280;65977;56.380;44.022;2023-04-03T11:09:27;100749.66;;;37.46;10.44
77047;BME280;65977;56.380;44.022;2023-04-03T11:12:02;100758.78;;;37.14;9.96
77047;BME280;65977;56.380;44.022;2023-04-03T11:14:32;100747.00;;;36.57;10.31
77047;BME280;65977;56.380;44.022;2023-04-03T11:17:23;100749.84;;;35.63;10.96
77047;BME280;65977;56.380;44.022;2023-04-03T11:22:36;100744.78;;;33.86;11.92
77047;BME280;65977;56.380;44.022;2023-04-03T11:25:17;100731.75;;;33.22;12.15
77047;BME280;65977;56.380;44.022;2023-04-03T11:27:58;100744.63;;;33.27;12.46
77047;BME280;65977;56.380;44.022;2023-04-03T11:33:24;100736.69;;;34.19;11.66
77047;BME280;65977;56.380;44.022;2023-04-03T11:36:00;100735.00;;;34.72;11.95
77047;BME280;65977;56.380;44.022;2023-04-03T11:38:46;100727.59;;;35.02;11.59
77047;BME280;65977;56.380;44.022;2023-04-03T11:41:14;100729.81;;;35.05;11.33
77047;BME280;65977;56.380;44.022;2023-04-03T11:43:56;100729.66;;;34.86;11.27
77047;BME280;65977;56.380;44.022;2023-04-03T12:16:30;100703.97;;;27.28;17.06
77047;BME280;65977;56.380;44.022;2023-04-03T12:45:16;100698.09;;;23.78;20.02
77047;BME280;65977;56.380;44.022;2023-04-03T12:47:48;100699.63;;;23.54;20.45
77047;BME280;65977;56.380;44.022;2023-04-03T12:50:31;100694.03;;;23.29;20.77
77047;BME280;65977;56.380;44.022;2023-04-03T12:53:04;100694.50;;;23.07;20.92
77047;BME280;65977;56.380;44.022;2023-04-03T12:55:32;100696.16;;;22.88;21.27
77047;BME280;65977;56.380;44.022;2023-04-03T12:58:22;100690.56;;;22.70;21.57
77047;BME280;65977;56.380;44.022;2023-04-03T13:01:00;100692.16;;;22.51;21.56
